Mount Eden, California
Current Conditions -  °F | °C
As of 5:54 PM on Friday 24 Oct 2014 (Local Time) from KHWD Reporting Station
Clear Clear  
Wind Chill: 69°   Ceiling: Unl
Heat Index: 69°   Visibility: 10mi
Dew Point: 59°   Wind: 12mph
Humidity: 70%   Direction: 260°W
Pressure: 29.89"   Gusts: NA
Location:  37.6276°N, 122.104°W
Report Text: KHWD 250054Z 26010KT 10SM CLR 21/15 A2989 RMK AO2 SLP129 T02060150
Loading
Personal Weather Stations






























Interactive Weather Map
Tropical Storm Tracking
New forecast layout! Learn more

10-Day Weather Forecast

Advertisements
Track Severe Weather on mobile